• Join FlightAware (Why Join?)
  • Login
  • US Flag 
12:16AM EST


 

Airport Tracker/Info


-or-


 

Live Flight TrackerFlight Track Log ✈ FLG3862 ✈ 21-Apr-2013 ✈ KBTV - KDTW

Flight Track Log - Related Links

Times and Time Zones

All times are in EDT time to prevent confusion due to time zone crossing. See the FLG3862 flight status page for this flight to view local times or setup timezone preferences in your user account.

Time Position Orientation Groundspeed Altitude Reporting Facility
EDT Latitude Longitude Course Direction KTS MPH feet Rate Location/Type
12:29PM 44.4917 -73.2550 272° West 186 214 4,800  Level Boston Center
12:30PM 44.4053 -73.5199 253° West  Level FlightAware Approximate
12:30PM 44.4767 -73.3419 256° West 233 268 7,200  Level Boston Center
12:31PM 44.3793 -73.6414 253° West  Level FlightAware Approximate
12:31PM 44.4592 -73.4406 256° West 262 302 10,100  Level Boston Center
12:32PM 44.3575 -73.7644 259° West  Level FlightAware Approximate
12:32PM 44.4394 -73.5478 256° West 277 319 12,200  Level Boston Center
12:33PM 44.3397 -73.8887 259° West  Level FlightAware Approximate
12:33PM 44.4194 -73.6636 256° West 303 349 14,200  Level Boston Center
12:34PM 44.3928 -73.7997 255° West 324 373 16,400 2,100 Climbing Boston Center
12:35PM 44.3706 -73.9269 256° West 329 379 18,400 1,380 Climbing Boston Center
12:36PM 44.3458 -74.0542 255° West 340 391 19,200 1,020 Climbing Boston Center
12:37PM 44.3231 -74.1811 256° West 340 391 20,500 1,380 Climbing Boston Center
12:38PM 44.3003 -74.3139 257° West 345 397 22,000 1,500 Climbing Boston Center
12:39PM 44.2731 -74.4408 253° West 345 397 23,600 1,440 Climbing Boston Center
12:40PM 44.2500 -74.5733 256° West 345 397 24,900 1,140 Climbing Boston Center
12:41PM 44.2244 -74.7028 255° West 350 403 25,900 960 Climbing Boston Center
12:42PM 44.1969 -74.8350 254° West 355 409 26,900 960 Climbing Boston Center
12:43PM 44.1753 -74.9700 257° West 355 409 27,900 540 Climbing Boston Center
12:44PM 44.1450 -75.1019 252° West 355 409 28,000  Climbing Boston Center
12:45PM 44.1208 -75.2425 257° West 365 420 28,000  Level Boston Center
12:46PM 44.0925 -75.3828 254° West 375 432 28,000  Level Boston Center
12:47PM 44.0636 -75.5261 254° West 380 437 28,000  Level Boston Center
12:48PM 44.0369 -75.6603 255° West 388 447 28,000  Level Boston Center
12:49PM 44.0078 -75.8031 254° West 393 452 28,000  Level Boston Center
12:50PM 43.9783 -75.9517 255° West 393 452 28,000  Level Boston Center
12:51PM 43.9572 -76.1003 259° West 393 452 28,000  Level Boston Center
12:52PM 43.9503 -76.2500 266° West 388 447 28,000  Level Boston Center
12:53PM 43.9469 -76.4028 268° West 388 447 28,000  Level Boston Center
12:54PM 43.9425 -76.5869 268° West 398 458 28,000  Level Boston Center
12:55PM 43.9333 -76.7667 266° West 400 460 28,000  Level Toronto Center
12:56PM 43.9167 -76.9167 261° West 400 460 28,000  Level Toronto Center
12:57PM 43.9167 -77.0667 270° West 390 449 28,000  Level Toronto Center
12:58PM 43.9000 -77.2333 262° West 400 460 28,000  Level Toronto Center
12:59PM 43.9000 -77.3667 270° West 400 460 28,000  Level Toronto Center
01:00PM 43.9000 -77.5333 270° West 400 460 28,000  Level Toronto Center
01:01PM 43.9000 -77.6667 270° West 400 460 28,000  Level Toronto Center
01:02PM 43.8833 -77.8333 262° West 400 460 28,000  Level Toronto Center
01:03PM 43.8833 -77.9833 270° West 400 460 28,000  Level Toronto Center
01:04PM 43.8667 -78.1333 261° West 400 460 28,000  Level Toronto Center
01:05PM 43.8667 -78.2833 270° West 400 460 28,000  Level Toronto Center
01:06PM 43.8500 -78.4500 262° West 400 460 28,000  Level Toronto Center
01:07PM 43.8667 -78.6000 279° West 400 460 28,000  Level Toronto Center
01:08PM 43.8500 -78.7500 261° West 400 460 28,000  Level Toronto Center
01:09PM 43.8500 -78.9000 270° West 400 460 28,000  Level Toronto Center
01:10PM 43.8333 -79.0500 261° West 400 460 28,000  Level Toronto Center
01:11PM 43.8333 -79.2167 270° West 400 460 28,000  Level Toronto Center
01:12PM 43.8167 -79.3833 262° West 400 460 28,000  Level Toronto Center
01:13PM 43.7667 -79.5000 239° Southwest 400 460 28,000  Level Toronto Center
01:14PM 43.6833 -79.6167 225° Southwest 410 472 28,000  Level Toronto Center
01:15PM 43.6000 -79.7333 225° Southwest 410 472 28,000  Level Toronto Center
01:16PM 43.5167 -79.8333 221° Southwest 410 472 28,000  Level Toronto Center
01:17PM 43.4333 -79.9333 221° Southwest 410 472 28,000  Level Toronto Center
01:18PM 43.3500 -80.0500 226° Southwest 410 472 28,000  Level Toronto Center
01:19PM 43.2667 -80.1667 226° Southwest 410 472 28,000  Level Toronto Center
01:20PM 43.1833 -80.2667 221° Southwest 410 472 28,000 -360 Level Toronto Center
01:21PM 43.1000 -80.3667 221° Southwest 410 472 27,300 -1,200 Descending Toronto Center
01:22PM 43.0167 -80.4833 226° Southwest 410 472 25,700 -1,740 Descending Toronto Center
01:23PM 42.9333 -80.5833 221° Southwest 400 460 23,900 -1,380 Descending Toronto Center
01:24PM 42.8500 -80.6833 221° Southwest 400 460 23,000 -660 Descending Toronto Center
01:24PM 42.8269 -80.7361 239° Southwest 408 470 23,000  Level Cleveland Center
01:25PM 42.7456 -80.8433 224° Southwest 402 463 23,000  Level Cleveland Center
01:26PM 42.6972 -80.9703 243° Southwest 368 423 23,000  Level Cleveland Center
01:27PM 42.6819 -81.1114 262° West 374 430 23,000  Level Cleveland Center
01:28PM 42.6667 -81.2494 261° West 380 437 23,000 -480 Level Cleveland Center
01:29PM 42.6514 -81.3764 261° West 360 414 22,100 -900 Descending Cleveland Center
01:30PM 42.6358 -81.4975 260° West 355 409 21,200 -1,020 Descending Cleveland Center
01:31PM 42.6200 -81.6272 261° West 350 403 20,100 -1,140 Descending Cleveland Center
01:32PM 42.6064 -81.7567 262° West 350 403 19,000 -1,140 Descending Cleveland Center
01:33PM 42.5906 -81.8806 260° West 350 403 17,900 -780 Descending Cleveland Center
01:34PM 42.5744 -82.0042 260° West 350 403 17,500 -780 Descending Cleveland Center
01:35PM 42.5606 -82.1167 261° West 334 384 16,400 -1,200 Descending Cleveland Center
01:36PM 42.5464 -82.2261 260° West 309 356 15,200 -1,260 Descending Cleveland Center
01:38PM 42.5317 -82.3694 262° West 295 339 13,800 -1,140 Descending Cleveland Center
01:38PM 42.5203 -82.4453 259° West 298 343 13,000 -960 Descending Cleveland Center
01:40PM 42.4950 -82.5797 256° West 282 325 11,900 -1,080 Descending Cleveland Center
01:40PM 42.4708 -82.6464 244° Southwest 288 331 10,900 -1,380 Descending Cleveland Center
01:41PM 42.4378 -82.7439 245° Southwest 288 331 9,500 -1,440 Descending Cleveland Center
01:42PM 42.4153 -82.8358 252° West 283 326 8,100 -1,500 Descending Cleveland Center
01:43PM 42.4142 -82.8808 268° West 277 319 7,500 -1,140 Descending Cleveland Center
01:43PM 42.4089 -82.9369 263° West 271 312 7,000 -540 Descending Cleveland Center
01:44PM 42.4081 -82.9847 269° West 267 307 7,000 -300 Level Cleveland Center
01:44PM 42.3986 -83.0378 256° West 271 312 6,700 -1,020 Descending Cleveland Center
01:45PM 42.3911 -83.0881 259° West 268 308 6,000 -1,320 Descending Cleveland Center
01:45PM 42.3778 -83.1297 247° West 271 312 5,400 -1,140 Descending Cleveland Center
01:46PM 42.3633 -83.1772 248° West 234 269 4,800 -1,140 Descending FAA TRACON SMA TRACON (SMA)
01:46PM 42.3528 -83.2022 240° Southwest 217 250 4,500 -1,080 Descending FAA TRACON SMA TRACON (SMA)
01:47PM 42.3425 -83.2264 240° Southwest 200 230 4,100 -1,200 Descending FAA TRACON SMA TRACON (SMA)
01:47PM 42.3322 -83.2431 230° Southwest 190 219 3,700 -1,500 Descending FAA TRACON SMA TRACON (SMA)
01:47PM 42.3183 -83.2608 223° Southwest 187 215 3,100 -1,740 Descending FAA TRACON SMA TRACON (SMA)